Time;durP1;ratioP1;P1;durP2;ratioP2;P2;SDS_P1;SDS_P2;PMS_P1;PMS_P2;Temp;Humidity;BMP_temperature;BMP_pressure;BME280_temperature;BME280_humidity;BME280_pressure;Samples;Min_cycle;Max_cycle;Signal;HPM_P1;HPM_P2
2021/10/10 00:00:57;;;;;;;18.97;16.03;;;6.80;99.30;;;;;;5080643;28;20261;-44
2021/10/10 00:03:23;;;;;;;17.50;15.67;;;6.70;99.30;;;;;;5098016;28;20588;-45
2021/10/10 00:05:49;;;;;;;21.73;16.60;;;6.70;99.30;;;;;;5115237;28;20512;-44
2021/10/10 00:08:14;;;;;;;19.37;16.50;;;6.60;99.20;;;;;;5104495;28;20191;-45
2021/10/10 00:10:40;;;;;;;19.30;16.77;;;6.60;99.20;;;;;;5097652;28;20559;-45
2021/10/10 00:13:06;;;;;;;19.13;16.67;;;6.60;99.30;;;;;;5083105;28;20179;-45
2021/10/10 00:15:32;;;;;;;18.33;16.23;;;6.50;99.30;;;;;;5113144;28;20471;-45
2021/10/10 00:17:57;;;;;;;19.73;16.10;;;6.50;99.30;;;;;;5103861;28;20518;-45
2021/10/10 00:20:23;;;;;;;17.80;15.90;;;6.50;99.30;;;;;;5111246;28;20441;-45
2021/10/10 00:22:49;;;;;;;19.03;16.57;;;6.40;99.40;;;;;;5115730;28;20179;-45
2021/10/10 00:25:15;;;;;;;21.53;16.20;;;6.40;99.50;;;;;;5106352;28;20442;-45
2021/10/10 00:27:41;;;;;;;18.53;16.40;;;6.40;99.50;;;;;;5115486;28;20208;-45
2021/10/10 00:30:09;;;;;;;19.07;15.83;;;6.40;99.50;;;;;;5110643;28;20188;-45
2021/10/10 00:32:35;;;;;;;19.20;16.30;;;6.40;99.40;;;;;;5108040;28;20208;-45
2021/10/10 00:35:01;;;;;;;18.73;16.60;;;6.40;99.30;;;;;;5108578;28;20545;-45
2021/10/10 00:37:27;;;;;;;18.63;15.23;;;6.40;99.50;;;;;;5113769;28;20461;-45
2021/10/10 00:39:53;;;;;;;16.17;14.47;;;6.40;99.10;;;;;;5110318;28;20699;-45
2021/10/10 00:42:19;;;;;;;18.93;15.13;;;6.30;99.10;;;;;;5097863;28;20479;-45
2021/10/10 00:44:47;;;;;;;18.90;16.20;;;6.30;99.10;;;;;;5104583;28;20444;-45
2021/10/10 00:47:12;;;;;;;19.30;15.90;;;6.20;99.00;;;;;;5109944;28;20465;-45
2021/10/10 00:49:39;;;;;;;19.87;15.60;;;6.20;99.10;;;;;;5106422;28;20481;-45
2021/10/10 00:52:06;;;;;;;18.30;16.13;;;6.20;99.20;;;;;;5114876;28;20195;-45
2021/10/10 00:54:32;;;;;;;18.93;15.87;;;6.20;99.40;;;;;;5115374;28;20536;-45
2021/10/10 00:56:58;;;;;;;21.47;16.77;;;6.10;99.50;;;;;;5108680;28;20473;-46
2021/10/10 00:59:24;;;;;;;19.97;16.77;;;6.10;99.60;;;;;;5082252;28;20882;-45
2021/10/10 01:01:50;;;;;;;19.17;17.17;;;6.10;99.70;;;;;;5085944;28;20491;-45
2021/10/10 01:04:16;;;;;;;17.77;15.17;;;6.10;99.60;;;;;;5085650;28;20446;-47
2021/10/10 01:06:42;;;;;;;17.83;15.93;;;6.10;99.60;;;;;;5097246;28;20609;-45
2021/10/10 01:09:08;;;;;;;20.17;15.17;;;6.00;99.40;;;;;;5100734;28;20473;-45
2021/10/10 01:11:35;;;;;;;17.63;14.97;;;6.00;99.30;;;;;;5115298;28;20181;-45
2021/10/10 01:14:01;;;;;;;16.43;13.90;;;6.00;99.30;;;;;;5080089;28;20211;-45
2021/10/10 01:16:27;;;;;;;16.07;14.33;;;6.00;99.40;;;;;;5119533;28;20702;-45
2021/10/10 01:18:56;;;;;;;19.57;14.40;;;6.00;99.50;;;;;;5108122;28;20443;-46
2021/10/10 01:21:22;;;;;;;18.60;15.00;;;5.90;99.50;;;;;;5101475;28;20181;-45
2021/10/10 01:23:48;;;;;;;17.17;14.13;;;5.90;99.50;;;;;;5108402;28;20460;-45
2021/10/10 01:26:14;;;;;;;17.60;14.50;;;5.90;99.50;;;;;;5119748;28;20578;-45
2021/10/10 01:28:39;;;;;;;17.27;15.33;;;5.90;99.50;;;;;;5117817;28;20448;-45
2021/10/10 01:31:05;;;;;;;16.50;14.80;;;5.90;99.50;;;;;;5106492;28;20606;-45
2021/10/10 01:33:31;;;;;;;16.93;13.90;;;5.80;99.30;;;;;;5115214;28;20228;-45
2021/10/10 01:35:56;;;;;;;17.10;15.20;;;5.80;99.10;;;;;;5098386;28;20184;-45
2021/10/10 01:38:22;;;;;;;16.67;14.90;;;5.70;99.00;;;;;;5115449;28;20192;-45
2021/10/10 01:40:48;;;;;;;17.20;14.70;;;5.60;99.00;;;;;;5107799;28;20172;-45
2021/10/10 01:43:14;;;;;;;19.57;14.33;;;5.50;99.30;;;;;;5096698;28;20216;-45
2021/10/10 01:45:40;;;;;;;19.80;16.30;;;5.50;99.50;;;;;;5108459;28;20454;-45
2021/10/10 01:48:05;;;;;;;16.87;14.73;;;5.50;99.70;;;;;;5088947;28;20793;-45
2021/10/10 01:50:33;;;;;;;18.93;14.83;;;5.50;99.90;;;;;;5100924;28;20187;-45
2021/10/10 01:52:59;;;;;;;21.17;15.70;;;5.50;99.90;;;;;;5101221;28;20490;-45
2021/10/10 01:55:24;;;;;;;17.60;14.80;;;5.50;99.90;;;;;;5100945;28;20439;-45
2021/10/10 01:58:30;;;;;;;20.60;15.03;;;5.50;99.90;;;;;;5104625;28;20520;-45
2021/10/10 02:00:57;;;;;;;13.10;11.60;;;5.50;99.90;;;;;;5092281;28;20215;-44
2021/10/10 02:03:23;;;;;;;10.43;7.57;;;5.50;99.90;;;;;;5117573;28;20795;-44
2021/10/10 02:05:50;;;;;;;12.77;10.63;;;6.10;99.90;;;;;;5117149;28;20434;-44
2021/10/10 02:08:16;;;;;;;15.80;14.07;;;6.90;99.90;;;;;;5116516;28;20802;-44
2021/10/10 02:10:43;;;;;;;22.30;19.73;;;7.70;99.90;;;;;;5100918;28;20537;-45
2021/10/10 02:13:08;;;;;;;20.60;18.57;;;8.20;99.90;;;;;;5112835;28;20495;-45
2021/10/10 02:15:34;;;;;;;20.80;18.60;;;8.10;99.90;;;;;;5097693;28;20415;-45
2021/10/10 02:18:00;;;;;;;19.93;17.43;;;7.70;99.90;;;;;;5111925;28;20191;-45
2021/10/10 02:20:26;;;;;;;18.33;16.40;;;7.30;99.90;;;;;;5107498;28;20429;-45
2021/10/10 02:22:51;;;;;;;15.77;14.17;;;7.00;99.90;;;;;;5117196;28;20278;-45
2021/10/10 02:25:17;;;;;;;15.40;13.80;;;6.80;99.90;;;;;;5104754;28;20195;-45
2021/10/10 02:27:45;;;;;;;19.60;14.80;;;6.50;99.90;;;;;;5107989;28;20226;-44
2021/10/10 02:30:11;;;;;;;17.87;14.80;;;6.40;99.80;;;;;;5116570;28;20180;-45
2021/10/10 02:32:37;;;;;;;14.67;13.03;;;6.20;99.00;;;;;;5102506;28;20439;-45
2021/10/10 02:35:03;;;;;;;17.57;12.20;;;6.10;98.70;;;;;;5116956;28;20480;-45
2021/10/10 02:37:29;;;;;;;15.93;14.33;;;6.00;98.50;;;;;;5118802;28;20184;-45
2021/10/10 02:39:54;;;;;;;16.07;14.17;;;5.90;98.60;;;;;;5103422;28;20564;-45
2021/10/10 02:42:20;;;;;;;17.80;13.20;;;5.70;98.60;;;;;;5099276;28;20548;-45
2021/10/10 02:44:46;;;;;;;15.00;13.50;;;5.70;98.60;;;;;;5101597;28;20224;-45
2021/10/10 02:47:12;;;;;;;15.17;13.10;;;5.60;98.40;;;;;;5083818;28;20536;-45
2021/10/10 02:49:37;;;;;;;17.77;13.80;;;5.50;98.40;;;;;;5111230;28;20273;-45
2021/10/10 02:52:04;;;;;;;14.50;12.97;;;5.40;98.50;;;;;;5100276;28;20869;-45
2021/10/10 02:54:29;;;;;;;16.60;13.73;;;5.40;98.60;;;;;;5113429;28;20176;-45
2021/10/10 02:56:55;;;;;;;17.57;13.57;;;5.30;98.80;;;;;;5113761;28;21042;-45
2021/10/10 02:59:21;;;;;;;14.43;12.53;;;5.30;98.90;;;;;;5108914;28;20188;-45
2021/10/10 03:01:46;;;;;;;13.13;11.80;;;5.20;98.70;;;;;;5110738;28;20180;-45
2021/10/10 03:04:12;;;;;;;15.10;13.17;;;5.20;98.80;;;;;;5103918;28;20216;-45
2021/10/10 03:06:38;;;;;;;15.87;11.90;;;5.10;98.70;;;;;;5100910;28;20301;-47
2021/10/10 03:09:03;;;;;;;13.83;12.23;;;5.10;98.70;;;;;;5106536;28;20179;-45
2021/10/10 03:11:29;;;;;;;15.00;12.60;;;5.10;98.60;;;;;;5107856;28;20242;-45
2021/10/10 03:13:55;;;;;;;14.83;12.63;;;5.00;98.70;;;;;;5108179;28;20275;-45
2021/10/10 03:16:20;;;;;;;16.37;13.73;;;5.00;98.80;;;;;;5101112;28;20228;-45
2021/10/10 03:18:46;;;;;;;14.77;13.17;;;4.90;98.90;;;;;;5097313;28;20176;-45
2021/10/10 03:21:12;;;;;;;14.83;12.57;;;4.90;98.90;;;;;;5098433;28;20196;-45
2021/10/10 03:23:38;;;;;;;15.53;12.87;;;4.90;99.00;;;;;;5107486;28;20255;-45
2021/10/10 03:26:04;;;;;;;14.20;12.73;;;4.90;98.90;;;;;;5115065;28;20304;-45
2021/10/10 03:28:29;;;;;;;14.63;12.70;;;4.80;98.90;;;;;;5116016;28;20172;-45
2021/10/10 03:30:55;;;;;;;17.70;13.50;;;4.80;99.00;;;;;;5116885;28;20440;-45
2021/10/10 03:33:21;;;;;;;15.10;13.40;;;4.80;99.00;;;;;;5114351;28;20470;-45
2021/10/10 03:35:47;;;;;;;15.00;13.37;;;4.80;99.10;;;;;;5113288;28;20187;-45
2021/10/10 03:38:12;;;;;;;16.70;14.70;;;4.70;99.00;;;;;;5115162;28;20200;-45
2021/10/10 03:40:38;;;;;;;17.70;13.37;;;4.70;99.10;;;;;;5101644;28;20188;-45
2021/10/10 03:43:04;;;;;;;15.70;13.47;;;4.70;99.20;;;;;;5102365;28;20581;-45
2021/10/10 03:45:29;;;;;;;13.33;11.83;;;4.70;99.20;;;;;;5109083;28;20173;-45
2021/10/10 03:47:55;;;;;;;15.17;13.50;;;4.60;99.30;;;;;;5102822;28;20308;-45
2021/10/10 03:50:21;;;;;;;15.30;13.30;;;4.60;99.30;;;;;;5102721;28;20172;-44
2021/10/10 03:52:47;;;;;;;16.33;14.07;;;4.60;99.20;;;;;;5116850;28;20223;-45
2021/10/10 03:55:30;;;;;;;15.13;13.23;;;4.60;99.10;;;;;;5115713;28;20598;-45
2021/10/10 03:57:57;;;;;;;16.00;13.80;;;4.60;99.20;;;;;;5111450;28;20223;-45
2021/10/10 04:00:23;;;;;;;18.90;13.70;;;4.60;99.20;;;;;;5116025;28;20509;-45
2021/10/10 04:02:49;;;;;;;15.10;13.50;;;4.60;99.20;;;;;;5095255;28;20430;-46
2021/10/10 04:05:19;;;;;;;17.33;13.80;;;4.50;99.20;;;;;;5109286;28;20430;-47
2021/10/10 04:07:46;;;;;;;15.07;13.13;;;4.50;99.30;;;;;;5104072;28;20469;-47
2021/10/10 04:10:12;;;;;;;15.70;13.47;;;4.50;99.40;;;;;;5098612;28;20423;-46
2021/10/10 04:12:37;;;;;;;16.03;13.20;;;4.40;99.30;;;;;;5098085;28;20445;-46
2021/10/10 04:15:09;;;;;;;16.73;13.00;;;4.40;99.30;;;;;;5112835;28;20181;-47
2021/10/10 04:17:35;;;;;;;15.57;13.87;;;4.40;99.30;;;;;;5103378;28;20224;-46
2021/10/10 04:20:01;;;;;;;16.80;12.97;;;4.40;99.40;;;;;;5111857;28;20501;-46
2021/10/10 04:22:26;;;;;;;16.90;13.20;;;4.40;99.40;;;;;;5080342;28;20455;-46
2021/10/10 04:24:52;;;;;;;15.23;13.63;;;4.40;99.50;;;;;;5111224;28;20176;-46
2021/10/10 04:27:18;;;;;;;16.23;13.70;;;4.40;99.60;;;;;;5106757;28;20201;-46
2021/10/10 04:29:43;;;;;;;16.17;13.57;;;4.40;99.50;;;;;;5104566;28;20165;-46
2021/10/10 04:32:09;;;;;;;15.63;13.20;;;4.30;99.50;;;;;;5109493;28;20594;-46
2021/10/10 04:34:35;;;;;;;17.30;13.87;;;4.30;99.50;;;;;;5105901;28;20310;-46
2021/10/10 04:37:00;;;;;;;16.83;14.57;;;4.30;99.40;;;;;;5110834;28;20244;-46
2021/10/10 04:39:26;;;;;;;17.00;13.43;;;4.20;99.30;;;;;;5111081;28;20206;-46
2021/10/10 04:41:52;;;;;;;14.97;13.43;;;4.20;99.30;;;;;;5114590;28;20196;-46
2021/10/10 04:44:18;;;;;;;15.50;13.90;;;4.20;99.40;;;;;;5102025;28;20181;-46
2021/10/10 04:46:43;;;;;;;16.23;13.60;;;4.20;99.40;;;;;;5096444;28;20208;-46
2021/10/10 04:49:09;;;;;;;17.77;14.40;;;4.10;99.50;;;;;;5101744;28;20202;-46
2021/10/10 04:51:35;;;;;;;16.37;13.43;;;4.10;99.50;;;;;;5119457;28;20642;-46
2021/10/10 04:54:00;;;;;;;17.37;12.67;;;4.10;99.50;;;;;;5107594;28;20181;-46
2021/10/10 04:56:26;;;;;;;15.37;12.77;;;4.10;99.50;;;;;;5115252;28;20583;-46
2021/10/10 04:58:52;;;;;;;18.70;14.43;;;4.10;99.50;;;;;;5117549;28;20176;-46
2021/10/10 05:01:17;;;;;;;15.70;13.33;;;4.10;99.50;;;;;;5115848;28;20214;-46
2021/10/10 05:03:43;;;;;;;15.90;14.20;;;4.10;99.60;;;;;;5084421;28;20484;-46
2021/10/10 05:06:09;;;;;;;16.10;13.90;;;4.00;99.40;;;;;;5118907;28;20215;-46
2021/10/10 05:08:35;;;;;;;14.60;13.10;;;4.00;99.40;;;;;;5120124;28;20184;-46
2021/10/10 05:11:00;;;;;;;16.37;13.03;;;4.00;99.40;;;;;;5104104;28;20216;-46
2021/10/10 05:13:26;;;;;;;15.60;12.90;;;4.00;99.40;;;;;;5105846;28;20208;-46
2021/10/10 05:15:52;;;;;;;18.00;13.67;;;4.00;99.40;;;;;;5113887;28;20184;-46
2021/10/10 05:18:17;;;;;;;15.43;13.53;;;3.90;99.40;;;;;;5117754;28;20173;-46
2021/10/10 05:20:43;;;;;;;16.27;13.80;;;3.90;99.40;;;;;;5102624;28;20181;-46
2021/10/10 05:23:10;;;;;;;15.37;13.77;;;3.90;99.30;;;;;;5099026;28;20169;-46
2021/10/10 05:25:37;;;;;;;17.57;14.03;;;3.90;99.30;;;;;;5115162;28;20180;-46
2021/10/10 05:28:04;;;;;;;14.30;12.80;;;3.90;99.30;;;;;;5110112;28;20854;-46
2021/10/10 05:30:30;;;;;;;17.73;13.60;;;3.90;99.30;;;;;;5117061;28;20460;-46
2021/10/10 05:32:55;;;;;;;15.43;13.80;;;3.90;99.40;;;;;;5111532;28;20457;-46
2021/10/10 05:35:21;;;;;;;15.60;12.43;;;3.90;99.40;;;;;;5105207;28;20311;-46
2021/10/10 05:37:47;;;;;;;15.90;13.90;;;3.90;99.30;;;;;;5098670;28;20479;-46
2021/10/10 05:40:13;;;;;;;17.30;13.40;;;3.90;99.30;;;;;;5101670;28;20184;-46
2021/10/10 05:42:38;;;;;;;14.40;12.63;;;3.90;99.10;;;;;;5115036;28;20191;-46
2021/10/10 05:45:05;;;;;;;15.30;12.97;;;3.90;98.90;;;;;;5117111;28;20183;-46
2021/10/10 05:47:31;;;;;;;16.97;13.70;;;3.90;98.80;;;;;;5106857;28;20473;-46
2021/10/10 05:49:57;;;;;;;15.20;12.73;;;3.90;98.90;;;;;;5100124;28;20395;-46
2021/10/10 05:52:25;;;;;;;14.50;13.00;;;3.90;99.00;;;;;;5114254;28;20282;-46
2021/10/10 05:54:50;;;;;;;15.07;13.00;;;3.90;99.10;;;;;;5107769;28;20518;-46
2021/10/10 05:57:19;;;;;;;16.80;13.77;;;3.90;99.20;;;;;;5103949;28;20603;-46
2021/10/10 05:59:46;;;;;;;15.83;12.33;;;3.90;99.20;;;;;;5100885;28;20196;-46
2021/10/10 06:02:12;;;;;;;18.63;13.57;;;4.00;99.30;;;;;;5110104;28;20686;-46
2021/10/10 06:04:39;;;;;;;16.77;13.30;;;4.00;99.30;;;;;;5115000;28;20444;-46
2021/10/10 06:07:05;;;;;;;18.50;13.30;;;4.00;99.20;;;;;;5113624;28;20208;-46
2021/10/10 06:09:31;;;;;;;16.63;13.43;;;4.10;99.20;;;;;;5110468;28;20864;-46
2021/10/10 06:11:57;;;;;;;15.67;13.40;;;4.20;99.30;;;;;;5101819;28;20177;-46
2021/10/10 06:14:23;;;;;;;15.70;13.10;;;4.30;99.20;;;;;;5115219;28;20454;-46
2021/10/10 06:16:49;;;;;;;16.33;13.10;;;4.50;99.20;;;;;;5116264;28;20438;-46
2021/10/10 06:19:15;;;;;;;20.00;14.40;;;4.60;99.20;;;;;;5118012;28;20732;-46
2021/10/10 06:21:41;;;;;;;14.80;13.17;;;4.70;99.20;;;;;;5095760;28;20177;-46
2021/10/10 06:24:06;;;;;;;13.87;12.37;;;4.90;99.50;;;;;;5102930;28;20183;-46
2021/10/10 06:26:32;;;;;;;15.13;13.27;;;5.10;99.10;;;;;;5117858;28;20208;-46
2021/10/10 06:28:58;;;;;;;14.57;13.07;;;5.30;99.00;;;;;;5115575;28;20238;-47
2021/10/10 06:31:23;;;;;;;14.80;13.30;;;5.50;98.80;;;;;;5100275;28;20507;-46
2021/10/10 06:33:49;;;;;;;15.17;13.40;;;5.80;98.40;;;;;;5082052;28;20282;-47
2021/10/10 06:36:19;;;;;;;15.80;13.60;;;6.10;98.10;;;;;;5116218;28;20185;-47
2021/10/10 06:38:47;;;;;;;16.90;13.60;;;6.40;97.60;;;;;;5100921;28;20475;-47
2021/10/10 06:41:12;;;;;;;14.40;12.80;;;6.60;97.20;;;;;;5103892;28;20514;-46
2021/10/10 06:43:38;;;;;;;16.60;13.43;;;6.90;96.70;;;;;;5114228;28;20757;-46
2021/10/10 06:46:04;;;;;;;15.23;13.43;;;7.20;96.30;;;;;;5114995;28;20535;-46
2021/10/10 06:48:30;;;;;;;16.83;14.83;;;7.40;96.20;;;;;;5116841;28;20197;-46
2021/10/10 06:50:57;;;;;;;16.17;14.57;;;7.70;95.90;;;;;;5113171;28;20449;-47
2021/10/10 06:53:22;;;;;;;21.03;14.07;;;8.00;95.50;;;;;;5102163;28;20184;-46
2021/10/10 06:55:48;;;;;;;15.17;13.67;;;8.30;95.00;;;;;;5095192;28;20438;-46
2021/10/10 06:58:14;;;;;;;14.90;13.30;;;8.60;94.50;;;;;;5101506;28;20562;-46
2021/10/10 07:00:40;;;;;;;16.20;13.80;;;8.90;94.10;;;;;;5098345;28;20282;-47
2021/10/10 07:03:05;;;;;;;15.50;13.90;;;9.30;93.70;;;;;;5081537;28;20173;-46
2021/10/10 07:05:31;;;;;;;15.70;14.10;;;9.70;93.20;;;;;;5098971;28;20175;-46
2021/10/10 07:07:57;;;;;;;15.70;14.20;;;10.10;91.70;;;;;;5112471;28;20604;-47
2021/10/10 07:10:23;;;;;;;15.50;14.00;;;10.60;91.20;;;;;;5094311;28;20432;-47
2021/10/10 07:12:48;;;;;;;18.17;15.73;;;11.00;90.30;;;;;;5099502;28;20263;-48
2021/10/10 07:15:15;;;;;;;16.50;14.70;;;11.30;89.10;;;;;;5115632;28;20245;-47
2021/10/10 07:17:41;;;;;;;17.50;15.70;;;11.70;88.10;;;;;;5093308;28;20246;-47
2021/10/10 07:25:09;;;;;;;18.33;15.73;;;12.60;85.70;;;;;;5109929;28;20507;-47
2021/10/10 07:27:40;;;;;;;15.60;14.17;;;13.00;84.20;;;;;;5114739;28;20567;-47
2021/10/10 07:30:07;;;;;;;15.30;13.80;;;13.30;83.30;;;;;;5114288;28;20461;-47
2021/10/10 07:32:33;;;;;;;16.07;14.43;;;13.70;82.20;;;;;;5114244;28;20451;-47
2021/10/10 07:35:00;;;;;;;16.90;14.80;;;14.20;80.60;;;;;;5086415;28;20595;-47
2021/10/10 07:37:26;;;;;;;15.30;13.80;;;14.70;79.40;;;;;;5095080;28;20484;-47
2021/10/10 07:39:52;;;;;;;16.67;14.97;;;15.40;78.40;;;;;;5087431;28;20931;-47
2021/10/10 07:42:18;;;;;;;18.57;15.70;;;16.00;76.20;;;;;;5095119;28;20583;-47
2021/10/10 07:44:45;;;;;;;16.17;14.47;;;16.70;73.10;;;;;;5088650;28;20500;-47
2021/10/10 07:49:53;;;;;;;14.67;13.10;;;18.00;69.60;;;;;;5094303;28;20847;-48
2021/10/10 07:52:20;;;;;;;14.57;13.30;;;18.80;66.50;;;;;;5089410;28;20443;-47
2021/10/10 07:54:47;;;;;;;16.43;14.83;;;19.40;63.50;;;;;;5081296;28;20442;-48
2021/10/10 07:57:13;;;;;;;16.43;14.80;;;20.00;60.30;;;;;;5082858;28;20440;-46
2021/10/10 07:59:39;;;;;;;16.67;14.83;;;20.50;58.80;;;;;;5096436;28;20431;-46
2021/10/10 08:02:05;;;;;;;15.03;13.53;;;21.10;57.40;;;;;;5076438;28;20439;-46
2021/10/10 08:04:32;;;;;;;17.93;13.50;;;21.60;55.70;;;;;;5088713;28;20431;-46
2021/10/10 08:06:58;;;;;;;16.03;14.63;;;22.20;55.60;;;;;;5086663;28;20461;-47
2021/10/10 08:09:26;;;;;;;14.97;13.37;;;22.70;53.90;;;;;;5087407;28;20169;-47
2021/10/10 08:11:52;;;;;;;14.13;12.83;;;23.10;52.00;;;;;;5088114;28;20191;-48
2021/10/10 08:14:18;;;;;;;14.40;12.87;;;23.80;50.40;;;;;;5093381;28;20431;-47
2021/10/10 08:16:44;;;;;;;14.40;12.90;;;24.30;49.20;;;;;;5082321;28;20441;-48
2021/10/10 08:19:10;;;;;;;14.73;13.13;;;24.90;47.90;;;;;;5078999;28;20427;-47
2021/10/10 08:21:36;;;;;;;13.40;12.17;;;25.40;47.00;;;;;;5089274;28;20439;-47
2021/10/10 08:24:03;;;;;;;14.07;12.77;;;26.00;45.70;;;;;;5084823;28;20431;-48
2021/10/10 08:26:33;;;;;;;14.40;11.37;;;26.40;44.10;;;;;;5090552;28;20471;-48
2021/10/10 08:28:59;;;;;;;14.03;12.73;;;26.90;42.70;;;;;;5097161;28;20434;-48
2021/10/10 08:31:27;;;;;;;14.60;13.20;;;27.50;41.60;;;;;;5087710;28;20473;-48
2021/10/10 08:33:53;;;;;;;15.23;12.07;;;27.90;40.90;;;;;;5086378;28;20843;-47
2021/10/10 08:36:20;;;;;;;14.13;12.83;;;28.30;39.80;;;;;;5102966;28;20484;-48
2021/10/10 08:38:56;;;;;;;15.70;14.10;;;28.80;39.60;;;;;;5117516;28;20722;-48
2021/10/10 08:41:25;;;;;;;14.63;13.13;;;29.30;38.40;;;;;;5115473;28;20594;-48
2021/10/10 08:43:56;;;;;;;13.97;12.60;;;29.80;37.40;;;;;;5100944;28;20892;-48
2021/10/10 08:46:26;;;;;;;15.27;13.87;;;30.40;36.50;;;;;;5100739;28;20469;-48
2021/10/10 08:48:52;;;;;;;13.45;12.20;;;31.00;34.90;;;;;;5101462;28;20765;-48
2021/10/10 08:51:19;;;;;;;14.20;12.73;;;31.50;34.20;;;;;;5098603;28;20176;-48
2021/10/10 08:53:45;;;;;;;14.70;13.20;;;32.10;33.50;;;;;;5103457;28;20209;-48
2021/10/10 08:56:11;;;;;;;12.80;11.67;;;32.60;32.80;;;;;;5097295;28;20870;-48
2021/10/10 08:58:44;;;;;;;14.50;12.10;;;33.00;31.80;;;;;;5119668;28;20509;-48
2021/10/10 09:01:17;;;;;;;13.73;12.53;;;33.50;30.80;;;;;;5111969;28;20460;-48
2021/10/10 09:03:49;;;;;;;14.40;13.00;;;33.90;30.30;;;;;;5100712;28;20442;-48
2021/10/10 09:06:16;;;;;;;13.13;12.03;;;34.10;30.10;;;;;;5108843;28;20435;-48
2021/10/10 09:08:42;;;;;;;12.93;11.83;;;34.30;29.90;;;;;;5089479;28;20428;-48
2021/10/10 09:11:09;;;;;;;12.33;11.33;;;34.40;29.40;;;;;;5101782;28;20426;-48
2021/10/10 09:13:40;;;;;;;13.07;11.87;;;34.40;28.80;;;;;;5082388;28;20427;-48
2021/10/10 09:16:07;;;;;;;12.70;11.47;;;34.50;28.60;;;;;;5102797;28;20430;-48
2021/10/10 09:18:41;;;;;;;12.85;11.65;;;34.60;28.80;;;;;;5111805;28;20396;-48
2021/10/10 09:21:15;;;;;;;11.83;10.90;;;34.50;28.00;;;;;;5119713;27;20171;-48
2021/10/10 09:23:49;;;;;;;12.73;11.43;;;34.60;27.80;;;;;;5123777;27;20395;-48
2021/10/10 09:26:15;;;;;;;14.67;12.80;;;34.70;27.60;;;;;;5110509;28;20447;-48
2021/10/10 09:28:42;;;;;;;13.37;12.17;;;34.50;27.60;;;;;;5113010;28;20881;-48
2021/10/10 09:31:08;;;;;;;13.17;11.97;;;34.40;27.30;;;;;;5118187;28;20417;-48
2021/10/10 09:33:54;;;;;;;13.27;12.13;;;34.20;27.90;;;;;;5092304;28;20405;-48
2021/10/10 09:36:26;;;;;;;12.23;10.97;;;34.10;27.80;;;;;;5081251;28;20686;-47
2021/10/10 09:41:44;;;;;;;13.00;11.90;;;33.80;27.60;;;;;;5115412;28;20214;-48
2021/10/10 09:44:18;;;;;;;11.77;10.67;;;33.60;27.50;;;;;;5115203;28;20429;-48
2021/10/10 09:46:46;;;;;;;11.98;10.77;;;33.30;28.20;;;;;;5103947;28;20464;-48
2021/10/10 09:49:33;;;;;;;13.27;11.97;;;33.20;28.20;;;;;;5116548;28;20259;-41
2021/10/10 09:52:08;;;;;;;12.37;11.20;;;32.50;28.60;;;;;;5113124;28;20423;-41
2021/10/10 09:54:54;;;;;;;14.45;12.27;;;31.60;29.00;;;;;;5108508;28;20441;-43
2021/10/10 09:57:27;;;;;;;12.13;11.10;;;30.70;29.60;;;;;;5113916;28;20429;-43
2021/10/10 09:59:54;;;;;;;12.73;11.43;;;30.20;30.30;;;;;;5118269;28;20471;-41
2021/10/10 10:02:37;;;;;;;13.30;12.10;;;29.90;30.50;;;;;;5120277;28;20470;-41
2021/10/10 10:05:07;;;;;;;12.17;11.07;;;29.70;30.50;;;;;;5117692;28;21008;-41
2021/10/10 10:07:33;;;;;;;11.23;10.13;;;29.60;31.30;;;;;;5109522;28;20512;-40
2021/10/10 10:09:59;;;;;;;9.70;8.80;;;29.50;33.50;;;;;;5100331;28;20859;-45
2021/10/10 10:12:25;;;;;;;11.43;10.43;;;29.50;33.60;;;;;;5108784;28;20397;-40
2021/10/10 10:15:01;;;;;;;11.87;9.70;;;29.60;33.80;;;;;;5115455;28;20410;-42
2021/10/10 10:17:28;;;;;;;11.17;10.07;;;29.70;34.20;;;;;;5096955;28;20826;-40
2021/10/10 10:19:56;;;;;;;10.67;9.53;;;29.70;31.90;;;;;;5108004;28;20535;-40
2021/10/10 10:22:22;;;;;;;10.50;9.50;;;29.80;32.60;;;;;;5097398;28;20415;-44
2021/10/10 10:24:48;;;;;;;11.00;9.90;;;29.80;31.10;;;;;;5098436;28;20402;-43
2021/10/10 10:27:15;;;;;;;12.67;10.67;;;29.90;31.60;;;;;;5115810;28;20210;-42
2021/10/10 10:29:43;;;;;;;10.53;9.63;;;29.90;30.50;;;;;;5113155;28;20525;-41
2021/10/10 10:32:09;;;;;;;12.38;11.27;;;30.10;31.10;;;;;;5098993;28;20541;-42
2021/10/10 10:34:35;;;;;;;11.97;10.43;;;30.00;30.10;;;;;;5105309;28;20243;-42
2021/10/10 10:37:07;;;;;;;12.70;11.50;;;29.90;31.10;;;;;;5098759;28;20404;-41
2021/10/10 10:39:33;;;;;;;12.97;11.13;;;29.90;29.90;;;;;;5109366;28;20407;-42
2021/10/10 10:41:59;;;;;;;11.90;10.80;;;30.00;30.30;;;;;;5099674;28;20438;-41
2021/10/10 10:44:35;;;;;;;13.80;12.23;;;30.20;30.00;;;;;;5085282;28;20442;-43
2021/10/10 10:47:05;;;;;;;10.83;9.83;;;30.30;30.00;;;;;;5097369;28;20556;-43
2021/10/10 10:49:50;;;;;;;11.40;10.40;;;30.40;30.60;;;;;;5099684;28;20520;-42
2021/10/10 10:52:35;;;;;;;14.20;10.50;;;30.60;30.50;;;;;;5099538;28;20425;-41
2021/10/10 10:55:28;;;;;;;12.88;11.57;;;30.80;30.20;;;;;;5098325;28;20831;-44
2021/10/10 10:58:06;;;;;;;11.60;10.40;;;30.90;29.80;;;;;;5113775;28;20206;-42
2021/10/10 11:00:42;;;;;;;12.00;10.80;;;31.10;30.00;;;;;;5115807;28;20455;-42
2021/10/10 11:03:09;;;;;;;11.70;10.50;;;31.20;29.70;;;;;;5119188;28;20388;-45
2021/10/10 11:05:39;;;;;;;11.20;10.10;;;31.40;29.00;;;;;;5098851;28;20425;-47
2021/10/10 11:08:17;;;;;;;12.23;11.23;;;31.60;29.20;;;;;;5097406;28;20521;-42
2021/10/10 11:11:03;;;;;;;12.10;11.00;;;31.80;28.70;;;;;;5099250;28;20421;-45
2021/10/10 11:13:35;;;;;;;12.47;11.47;;;31.80;28.10;;;;;;5111509;28;20433;-41
2021/10/10 11:16:07;;;;;;;13.20;11.90;;;31.70;28.30;;;;;;5107279;28;20408;-46
2021/10/10 11:18:33;;;;;;;12.13;11.03;;;31.70;28.10;;;;;;5115790;28;20491;-46
2021/10/10 11:21:04;;;;;;;15.90;11.13;;;31.60;28.20;;;;;;5117967;28;20463;-41
2021/10/10 11:23:32;;;;;;;12.73;11.43;;;31.20;28.40;;;;;;5117124;28;20396;-45
2021/10/10 11:25:59;;;;;;;12.37;11.27;;;31.00;28.50;;;;;;5118259;28;20408;-43
2021/10/10 11:28:57;;;;;;;14.77;13.23;;;31.20;28.60;;;;;;5109857;28;20481;-45
2021/10/10 11:31:25;;;;;;;12.13;10.93;;;31.40;28.50;;;;;;5078695;28;20519;-44
2021/10/10 11:33:56;;;;;;;11.07;10.07;;;31.70;28.70;;;;;;5077859;28;20474;-44
2021/10/10 11:36:33;;;;;;;13.47;12.17;;;32.00;28.90;;;;;;5095300;28;20480;-43
2021/10/10 11:38:59;;;;;;;12.20;10.90;;;32.20;29.20;;;;;;5095463;28;20721;-42
2021/10/10 11:41:26;;;;;;;12.13;11.03;;;32.10;28.80;;;;;;5093023;28;20444;-42
2021/10/10 11:43:57;;;;;;;11.38;10.43;;;32.20;28.50;;;;;;5103983;28;20271;-44
2021/10/10 11:46:24;;;;;;;11.93;10.83;;;32.30;28.70;;;;;;5114980;28;20203;-43
2021/10/10 11:48:51;;;;;;;11.90;10.90;;;32.50;28.60;;;;;;5102647;28;20717;-45
2021/10/10 11:51:39;;;;;;;11.87;10.63;;;32.60;27.90;;;;;;5093500;28;20426;-40
2021/10/10 11:54:06;;;;;;;14.27;12.87;;;32.70;27.90;;;;;;5104356;28;20482;-42
2021/10/10 11:56:32;;;;;;;11.67;10.70;;;32.50;27.00;;;;;;5098991;28;20404;-42
2021/10/10 11:59:11;;;;;;;12.97;11.70;;;32.40;27.80;;;;;;5077410;28;20465;-42
2021/10/10 12:01:37;;;;;;;11.70;10.50;;;32.30;28.40;;;;;;5098609;28;20400;-45
2021/10/10 12:04:03;;;;;;;11.03;9.60;;;32.40;28.20;;;;;;5097048;28;20397;-43
2021/10/10 12:06:28;;;;;;;11.20;10.10;;;32.70;28.30;;;;;;5077396;28;20895;-43
2021/10/10 12:09:10;;;;;;;10.37;9.47;;;33.00;27.70;;;;;;5112607;28;20431;-43
2021/10/10 12:11:40;;;;;;;10.60;9.70;;;33.30;27.70;;;;;;5096355;28;20180;-43
2021/10/10 12:14:06;;;;;;;10.97;10.00;;;33.60;27.50;;;;;;5090161;28;20418;-42
2021/10/10 12:16:42;;;;;;;10.43;9.20;;;33.90;27.40;;;;;;5090181;28;20398;-43
2021/10/10 12:19:09;;;;;;;12.27;10.50;;;34.10;27.30;;;;;;5094882;28;20184;-44
2021/10/10 12:21:36;;;;;;;12.80;9.30;;;34.20;26.80;;;;;;5093096;28;20430;-43
2021/10/10 12:24:03;;;;;;;11.60;10.60;;;34.20;26.70;;;;;;5101110;28;20405;-45
2021/10/10 12:27:08;;;;;;;10.93;10.07;;;34.20;27.20;;;;;;5104771;28;20501;-42
2021/10/10 12:29:34;;;;;;;12.20;10.70;;;34.20;26.90;;;;;;5077204;28;20211;-44
2021/10/10 12:32:36;;;;;;;11.13;10.03;;;34.30;26.50;;;;;;5108529;28;20184;-42
2021/10/10 12:35:16;;;;;;;12.10;11.00;;;34.30;27.00;;;;;;5016214;28;20945;-46
2021/10/10 12:37:55;;;;;;;11.37;10.27;;;34.40;27.20;;;;;;5059301;28;20556;-41
2021/10/10 12:40:29;;;;;;;10.90;9.80;;;34.40;27.30;;;;;;5072678;28;20423;-42
2021/10/10 12:42:56;;;;;;;11.70;10.50;;;34.40;27.40;;;;;;5074458;28;20401;-42
2021/10/10 12:45:32;;;;;;;11.97;10.93;;;34.40;27.10;;;;;;5056752;28;20435;-43
2021/10/10 12:48:09;;;;;;;10.63;9.73;;;33.90;26.90;;;;;;5074681;28;20875;-42